createdAt,value
2019-02-22T00:01:58.480Z,14.67
2019-02-22T00:04:28.284Z,11.13
2019-02-22T00:06:58.028Z,11.80
2019-02-22T00:09:27.787Z,10.97
2019-02-22T00:11:57.664Z,8.13
2019-02-22T00:14:27.402Z,10.13
2019-02-22T00:16:57.145Z,10.03
2019-02-22T00:19:26.996Z,10.57
2019-02-22T00:21:56.745Z,9.90
2019-02-22T00:24:26.494Z,9.33
2019-02-22T00:26:56.200Z,11.00
2019-02-22T00:29:25.992Z,8.63
2019-02-22T00:31:55.706Z,9.87
2019-02-22T00:34:25.547Z,11.77
2019-02-22T00:36:55.352Z,10.30
2019-02-22T00:39:25.130Z,9.30
2019-02-22T00:41:54.872Z,8.87
2019-02-22T00:44:24.589Z,10.03
2019-02-22T00:46:54.363Z,8.10
2019-02-22T00:49:24.069Z,4.90
2019-02-22T00:51:53.823Z,14.00
2019-02-22T00:54:23.573Z,6.67
2019-02-22T00:56:53.349Z,8.13
2019-02-22T00:59:23.088Z,7.17
2019-02-22T01:01:52.841Z,4.97
2019-02-22T01:04:22.592Z,5.87
2019-02-22T01:06:52.324Z,4.97
2019-02-22T01:09:22.165Z,8.80
2019-02-22T01:11:51.936Z,4.13
2019-02-22T01:14:22.869Z,4.60
2019-02-22T01:16:52.582Z,3.23
2019-02-22T01:19:22.417Z,6.93
2019-02-22T01:21:52.192Z,6.73
2019-02-22T01:24:24.621Z,10.10
2019-02-22T01:26:54.369Z,7.03
2019-02-22T01:29:24.112Z,7.77
2019-02-22T01:31:55.415Z,4.47
2019-02-22T01:34:25.123Z,8.33
2019-02-22T01:36:54.905Z,14.87
2019-02-22T01:39:24.617Z,6.33
2019-02-22T01:41:54.366Z,16.17
2019-02-22T01:44:24.124Z,6.27
2019-02-22T01:46:54.800Z,5.67
2019-02-22T01:49:24.547Z,7.90
2019-02-22T01:51:54.302Z,10.40
2019-02-22T01:54:24.057Z,10.50
2019-02-22T01:56:53.764Z,5.87
2019-02-22T01:59:23.526Z,9.13
2019-02-22T02:01:53.240Z,6.47
2019-02-22T02:04:22.992Z,4.70
2019-02-22T02:06:53.039Z,8.33
2019-02-22T02:09:22.751Z,6.83
2019-02-22T02:11:52.507Z,7.33
2019-02-22T02:14:22.147Z,5.57
2019-02-22T02:16:51.889Z,4.30
2019-02-22T02:19:21.630Z,4.83
2019-02-22T02:21:51.411Z,11.97
2019-02-22T02:24:21.158Z,3.47
2019-02-22T02:26:50.936Z,5.67
2019-02-22T02:29:20.717Z,6.43
2019-02-22T02:31:50.472Z,7.23
2019-02-22T02:34:20.256Z,7.07
2019-02-22T02:36:50.029Z,6.43
2019-02-22T02:39:19.801Z,5.73
2019-02-22T02:41:49.545Z,7.30
2019-02-22T02:44:19.257Z,6.37
2019-02-22T02:46:49.032Z,9.73
2019-02-22T02:49:18.806Z,15.87
2019-02-22T02:51:48.607Z,14.53
2019-02-22T02:54:18.314Z,8.07
2019-02-22T02:56:48.063Z,7.07
2019-02-22T02:59:17.809Z,7.37
2019-02-22T03:01:47.586Z,7.20
2019-02-22T03:04:17.261Z,7.53
2019-02-22T03:06:48.598Z,7.97
2019-02-22T03:09:18.349Z,10.27
2019-02-22T03:11:48.097Z,7.27
2019-02-22T03:14:17.832Z,9.80
2019-02-22T03:16:47.544Z,9.03
2019-02-22T03:19:17.357Z,6.10
2019-02-22T03:21:47.064Z,7.13
2019-02-22T03:24:16.819Z,6.20
2019-02-22T03:26:46.563Z,6.47
2019-02-22T03:29:16.345Z,7.27
2019-02-22T03:31:46.099Z,6.47
2019-02-22T03:34:15.844Z,5.70
2019-02-22T03:36:45.574Z,6.97
2019-02-22T03:39:15.277Z,7.53
2019-02-22T03:41:45.057Z,7.87
2019-02-22T03:44:14.776Z,6.87
2019-02-22T03:46:44.558Z,12.37
2019-02-22T03:49:14.268Z,7.17
2019-02-22T03:51:44.011Z,9.17
2019-02-22T03:54:13.764Z,8.83
2019-02-22T03:56:43.528Z,8.40
2019-02-22T03:59:13.224Z,8.30
2019-02-22T04:01:42.960Z,7.83
2019-02-22T04:04:12.703Z,8.03
2019-02-22T04:06:42.449Z,6.97
2019-02-22T04:09:12.252Z,11.63
2019-02-22T04:11:45.717Z,11.40
2019-02-22T04:14:13.444Z,7.00
2019-02-22T04:16:43.089Z,6.23
2019-02-22T04:19:12.860Z,9.93
2019-02-22T04:21:42.530Z,8.90
2019-02-22T04:24:12.246Z,4.23
2019-02-22T04:26:42.031Z,8.20
2019-02-22T04:29:11.742Z,3.97
2019-02-22T04:31:41.457Z,17.33
2019-02-22T04:34:11.163Z,9.03
2019-02-22T04:36:40.886Z,10.23
2019-02-22T04:39:10.581Z,8.33
2019-02-22T04:41:40.358Z,5.00
2019-02-22T04:44:10.007Z,6.23
2019-02-22T04:46:39.709Z,6.77
2019-02-22T04:49:09.483Z,5.23
2019-02-22T04:51:39.222Z,6.97
2019-02-22T04:54:08.912Z,6.30
2019-02-22T04:56:38.687Z,5.97
2019-02-22T04:59:08.406Z,2.23
2019-02-22T05:01:38.174Z,8.23
2019-02-22T05:04:07.874Z,9.13
2019-02-22T05:06:37.555Z,5.60
2019-02-22T05:09:07.294Z,4.90
2019-02-22T05:11:37.004Z,5.00
2019-02-22T05:14:06.771Z,6.53
2019-02-22T05:16:36.478Z,7.60
2019-02-22T05:19:06.234Z,6.20
2019-02-22T05:21:35.939Z,6.37
2019-02-22T05:24:05.736Z,6.33
2019-02-22T05:26:35.474Z,6.20
2019-02-22T05:29:05.193Z,9.77
2019-02-22T05:31:34.974Z,11.47
2019-02-22T05:34:04.718Z,8.50
2019-02-22T05:36:34.488Z,8.70
2019-02-22T05:39:05.033Z,8.93
2019-02-22T05:41:34.805Z,7.73
2019-02-22T05:44:04.488Z,8.57
2019-02-22T05:46:34.255Z,4.27
2019-02-22T05:49:04.011Z,7.47
2019-02-22T05:51:33.756Z,2.47
2019-02-22T05:54:03.515Z,7.27
2019-02-22T05:56:33.229Z,7.77
2019-02-22T05:59:02.998Z,9.17
2019-02-22T06:01:32.712Z,9.33
2019-02-22T06:04:02.405Z,8.03
2019-02-22T06:06:32.129Z,13.00
2019-02-22T06:09:01.816Z,6.17
2019-02-22T06:11:31.558Z,7.37
2019-02-22T06:14:01.264Z,10.37
2019-02-22T06:16:31.036Z,7.93
2019-02-22T06:19:00.844Z,12.10
2019-02-22T06:21:30.594Z,8.13
2019-02-22T06:24:02.887Z,7.13
2019-02-22T06:26:34.480Z,11.33
2019-02-22T06:29:04.229Z,10.07
2019-02-22T06:31:36.978Z,12.67
2019-02-22T06:34:06.746Z,14.53
2019-02-22T06:36:37.969Z,15.27
2019-02-22T06:39:12.888Z,39.03
2019-02-22T06:41:40.254Z,23.60
2019-02-22T06:44:11.926Z,13.07
2019-02-22T06:46:42.138Z,12.93
2019-02-22T06:49:11.868Z,22.37
2019-02-22T06:51:41.655Z,88.10
2019-02-22T06:54:11.402Z,10.87
2019-02-22T06:56:43.189Z,11.43
2019-02-22T06:59:14.375Z,17.47
2019-02-22T07:01:44.155Z,10.50
2019-02-22T07:04:13.901Z,8.83
2019-02-22T07:06:43.670Z,6.23
2019-02-22T07:09:13.409Z,9.20
2019-02-22T07:11:53.721Z,5.60
2019-02-22T07:14:23.464Z,12.20
2019-02-22T07:16:53.238Z,5.50
2019-02-22T07:19:23.005Z,7.43
2019-02-22T07:21:53.286Z,19.57
2019-02-22T07:24:23.121Z,25.43
2019-02-22T07:26:52.885Z,6.90
2019-02-22T07:29:22.634Z,25.50
2019-02-22T07:31:52.318Z,9.53
2019-02-22T07:34:22.060Z,2.87
2019-02-22T07:36:51.781Z,5.40
2019-02-22T07:39:27.766Z,4.87
2019-02-22T07:41:52.968Z,6.77
2019-02-22T07:44:22.733Z,3.90
2019-02-22T07:46:52.450Z,9.40
2019-02-22T07:49:24.219Z,6.77
2019-02-22T07:51:53.936Z,6.07
2019-02-22T07:54:23.667Z,11.27
2019-02-22T07:56:53.416Z,7.90
2019-02-22T07:59:23.131Z,8.20
2019-02-22T08:01:52.898Z,10.30
2019-02-22T08:04:22.605Z,16.17
2019-02-22T08:06:52.379Z,9.63
2019-02-22T08:09:22.118Z,93.37
2019-02-22T08:11:51.906Z,7.70
2019-02-22T08:14:21.664Z,55.47
2019-02-22T08:16:51.432Z,13.77
2019-02-22T08:19:21.194Z,101.53
2019-02-22T08:21:50.954Z,77.90
2019-02-22T08:24:20.721Z,313.53
2019-02-22T08:26:50.659Z,55.33
2019-02-22T08:29:20.401Z,46.47
2019-02-22T08:31:50.141Z,11.90
2019-02-22T08:34:19.907Z,14.57
2019-02-22T08:36:49.657Z,20.03
2019-02-22T08:39:19.378Z,66.67
2019-02-22T08:41:49.115Z,38.03
2019-02-22T08:44:18.882Z,106.23
2019-02-22T08:46:48.626Z,135.97
2019-02-22T08:49:18.345Z,169.97
2019-02-22T08:51:48.064Z,131.67
2019-02-22T08:54:17.791Z,128.80
2019-02-22T08:56:47.539Z,47.83
2019-02-22T08:59:17.283Z,19.27
2019-02-22T09:01:47.136Z,25.87
2019-02-22T09:04:16.860Z,10.37
2019-02-22T09:06:46.567Z,7.97
2019-02-22T09:09:16.332Z,26.07
2019-02-22T09:11:46.083Z,26.63
2019-02-22T09:14:15.840Z,28.97
2019-02-22T09:16:45.584Z,34.53
2019-02-22T09:19:15.304Z,27.60
2019-02-22T09:21:45.406Z,11.17
2019-02-22T09:24:15.144Z,17.70
2019-02-22T09:26:44.931Z,52.43
2019-02-22T09:29:14.671Z,16.87
2019-02-22T09:31:44.415Z,25.23
2019-02-22T09:34:14.154Z,19.97
2019-02-22T09:36:43.876Z,47.83
2019-02-22T09:39:13.649Z,32.33
2019-02-22T09:41:43.376Z,19.33
2019-02-22T09:44:13.261Z,15.40
2019-02-22T09:46:42.965Z,3.37
2019-02-22T09:49:12.706Z,6.00
2019-02-22T09:51:42.457Z,10.30
2019-02-22T09:54:13.671Z,8.97
2019-02-22T09:56:43.451Z,5.83
2019-02-22T09:59:13.160Z,16.80
2019-02-22T10:01:42.845Z,10.40
2019-02-22T10:04:12.511Z,5.53
2019-02-22T10:06:42.250Z,10.17
2019-02-22T10:09:11.995Z,8.27
2019-02-22T10:11:41.700Z,4.40
2019-02-22T10:14:11.510Z,18.57
2019-02-22T10:16:41.222Z,10.30
2019-02-22T10:19:11.013Z,12.37
2019-02-22T10:21:40.716Z,6.93
2019-02-22T10:24:10.458Z,9.50
2019-02-22T10:26:40.222Z,17.00
2019-02-22T10:29:09.931Z,7.57
2019-02-22T10:31:39.673Z,17.47
2019-02-22T10:34:09.347Z,14.73
2019-02-22T10:36:45.082Z,9.07
2019-02-22T10:39:10.444Z,8.60
2019-02-22T10:41:40.143Z,11.93
2019-02-22T10:44:17.841Z,8.80
2019-02-22T10:46:44.234Z,7.97
2019-02-22T10:49:14.017Z,6.70
2019-02-22T10:51:47.118Z,7.90
2019-02-22T10:54:18.541Z,6.47
2019-02-22T10:56:48.316Z,6.47
2019-02-22T10:59:18.226Z,8.03
2019-02-22T11:01:48.998Z,4.87
2019-02-22T11:04:18.717Z,4.23
2019-02-22T11:06:48.481Z,3.97
2019-02-22T11:09:18.241Z,142.00
2019-02-22T11:11:48.156Z,42.03
2019-02-22T11:14:28.434Z,60.83
2019-02-22T11:16:49.484Z,6.53
2019-02-22T11:19:19.198Z,7.93
2019-02-22T11:21:48.907Z,6.73
2019-02-22T11:24:22.125Z,2.13
2019-02-22T11:26:51.903Z,7.30
2019-02-22T11:29:21.655Z,5.57
2019-02-22T11:31:51.502Z,13.80
2019-02-22T11:34:22.915Z,4.80
2019-02-22T11:36:53.682Z,10.63
2019-02-22T11:39:23.480Z,9.77
2019-02-22T11:41:53.292Z,11.27
2019-02-22T11:44:23.015Z,7.20
2019-02-22T11:46:52.751Z,7.40
2019-02-22T11:49:22.501Z,6.70
2019-02-22T11:51:52.234Z,32.17
2019-02-22T11:54:22.061Z,23.67
2019-02-22T11:56:51.774Z,15.63
2019-02-22T11:59:21.602Z,5.77
2019-02-22T12:01:51.461Z,11.87
2019-02-22T12:04:21.207Z,13.83
2019-02-22T12:06:50.951Z,86.10
2019-02-22T12:09:21.451Z,83.47
2019-02-22T12:11:53.396Z,101.10
2019-02-22T12:14:26.695Z,15.33
2019-02-22T12:16:59.468Z,9.33
2019-02-22T12:19:30.633Z,12.97
2019-02-22T12:22:01.168Z,6.80
2019-02-22T12:24:34.356Z,6.13
2019-02-22T12:27:14.113Z,8.00
2019-02-22T12:29:45.785Z,5.30
2019-02-22T12:32:15.521Z,8.33
2019-02-22T12:34:45.392Z,110.83
2019-02-22T12:37:18.271Z,141.67
2019-02-22T12:39:48.136Z,112.23
2019-02-22T12:42:24.988Z,59.50
2019-02-22T12:45:02.809Z,9.77
2019-02-22T12:47:27.154Z,20.00
2019-02-22T12:49:57.940Z,50.13
2019-02-22T12:52:29.454Z,8.50
2019-02-22T12:54:59.512Z,28.53
2019-02-22T12:57:30.857Z,19.17
2019-02-22T13:00:02.093Z,11.90
2019-02-22T13:02:35.807Z,11.13
2019-02-22T13:05:15.697Z,12.63
2019-02-22T13:07:54.012Z,9.27
2019-02-22T13:10:26.775Z,10.00
2019-02-22T13:12:58.945Z,94.60
2019-02-22T13:15:28.734Z,142.37
2019-02-22T13:17:58.463Z,26.33
2019-02-22T13:20:28.283Z,13.67
2019-02-22T13:23:02.764Z,5.83
2019-02-22T13:25:35.557Z,13.57
2019-02-22T13:28:05.415Z,23.30
2019-02-22T13:30:37.099Z,6.57
2019-02-22T13:33:06.897Z,23.10
2019-02-22T13:35:36.725Z,11.20
2019-02-22T13:38:06.453Z,20.27
2019-02-22T13:40:44.998Z,4.43
2019-02-22T13:43:19.907Z,30.93
2019-02-22T13:46:01.971Z,65.43
2019-02-22T13:48:31.938Z,27.77
2019-02-22T13:51:01.725Z,9.97
2019-02-22T13:53:40.713Z,46.90
2019-02-22T13:56:11.414Z,10.17
2019-02-22T13:58:41.217Z,36.13
2019-02-22T14:01:11.089Z,12.50
2019-02-22T14:03:42.337Z,49.57
2019-02-22T14:06:14.408Z,20.63
2019-02-22T14:08:46.548Z,10.77
2019-02-22T14:11:20.810Z,19.63
2019-02-22T14:13:56.595Z,44.93
2019-02-22T14:16:29.505Z,9.27
2019-02-22T14:18:59.235Z,7.33
2019-02-22T14:21:28.997Z,12.60
2019-02-22T14:23:59.041Z,11.97
2019-02-22T14:26:30.271Z,60.23
2019-02-22T14:29:04.290Z,22.23
2019-02-22T14:31:34.959Z,10.73
2019-02-22T14:34:04.756Z,15.27
2019-02-22T14:36:38.896Z,18.67
2019-02-22T14:39:08.756Z,17.90
2019-02-22T14:41:38.750Z,9.87
2019-02-22T14:44:15.202Z,17.10
2019-02-22T14:46:44.819Z,13.00
2019-02-22T14:49:14.555Z,26.33
2019-02-22T14:51:44.329Z,9.67
2019-02-22T14:54:14.025Z,13.30
2019-02-22T14:56:46.446Z,23.57
2019-02-22T14:59:17.759Z,8.33
2019-02-22T15:01:47.628Z,17.63
2019-02-22T15:04:17.343Z,34.13
2019-02-22T15:06:48.830Z,30.40
2019-02-22T15:09:18.551Z,17.27
2019-02-22T15:11:48.311Z,35.87
2019-02-22T15:14:22.514Z,33.57
2019-02-22T15:16:56.734Z,34.07
2019-02-22T15:19:26.618Z,9.50
2019-02-22T15:21:56.424Z,19.37
2019-02-22T15:24:26.186Z,24.10
2019-02-22T15:26:55.906Z,24.00
2019-02-22T15:29:25.894Z,68.37
2019-02-22T15:31:55.605Z,102.43
2019-02-22T15:34:25.373Z,31.80
2019-02-22T15:36:55.096Z,28.17
2019-02-22T15:39:24.883Z,24.77
2019-02-22T15:41:54.682Z,14.67
2019-02-22T15:44:24.651Z,28.17
2019-02-22T15:46:54.400Z,35.03
2019-02-22T15:49:24.237Z,26.23
2019-02-22T15:51:53.997Z,35.50
2019-02-22T15:54:23.704Z,37.23
2019-02-22T15:56:53.484Z,17.70
2019-02-22T15:59:23.154Z,41.00
2019-02-22T16:01:55.788Z,37.17
2019-02-22T16:04:25.900Z,32.10
2019-02-22T16:06:55.695Z,37.83
2019-02-22T16:09:25.459Z,36.40
2019-02-22T16:11:55.339Z,40.73
2019-02-22T16:14:25.119Z,44.37
2019-02-22T16:16:55.232Z,55.70
2019-02-22T16:19:25.004Z,53.60
2019-02-22T16:21:54.783Z,103.13
2019-02-22T16:24:24.799Z,71.87
2019-02-22T16:26:56.152Z,84.67
2019-02-22T16:29:25.908Z,91.90
2019-02-22T16:31:55.677Z,202.83
2019-02-22T16:34:25.461Z,49.53
2019-02-22T16:36:55.625Z,84.43
2019-02-22T16:39:25.566Z,89.03
2019-02-22T16:41:55.369Z,64.50
2019-02-22T16:44:25.125Z,51.57
2019-02-22T16:46:57.622Z,61.37
2019-02-22T16:49:26.467Z,86.80
2019-02-22T16:51:57.268Z,78.43
2019-02-22T16:54:27.024Z,73.63
2019-02-22T16:56:56.824Z,35.47
2019-02-22T16:59:26.651Z,80.07
2019-02-22T17:01:56.352Z,89.97
2019-02-22T17:04:26.130Z,208.57
2019-02-22T17:06:55.891Z,443.30
2019-02-22T17:09:25.692Z,309.17
2019-02-22T17:12:05.852Z,109.03
2019-02-22T17:14:26.950Z,78.00
2019-02-22T17:16:56.840Z,101.83
2019-02-22T17:19:26.677Z,70.80
2019-02-22T17:21:56.398Z,55.33
2019-02-22T17:24:26.300Z,79.30
2019-02-22T17:26:58.549Z,70.60
2019-02-22T17:29:28.469Z,66.40
2019-02-22T17:31:58.247Z,69.63
2019-02-22T17:34:28.161Z,89.93
2019-02-22T17:36:57.916Z,83.67
2019-02-22T17:39:28.024Z,87.53
2019-02-22T17:41:57.891Z,125.77
2019-02-22T17:44:27.710Z,128.10
2019-02-22T17:46:58.995Z,263.30
2019-02-22T17:49:28.707Z,208.17
2019-02-22T17:51:58.514Z,116.70
2019-02-22T17:54:31.293Z,188.30
2019-02-22T17:56:59.789Z,122.37
2019-02-22T17:59:29.560Z,135.47
2019-02-22T18:01:59.335Z,171.93
2019-02-22T18:04:29.160Z,179.63
2019-02-22T18:06:58.962Z,153.50
2019-02-22T18:09:28.750Z,120.23
2019-02-22T18:11:58.566Z,195.07
2019-02-22T18:14:28.377Z,331.73
2019-02-22T18:17:08.154Z,429.83
2019-02-22T18:19:31.870Z,311.90
2019-02-22T18:22:01.405Z,111.13
2019-02-22T18:24:31.181Z,110.97
2019-02-22T18:27:01.012Z,76.13
2019-02-22T18:29:35.386Z,102.43
2019-02-22T18:32:02.298Z,85.00
2019-02-22T18:34:32.115Z,253.43
2019-02-22T18:37:01.869Z,156.83
2019-02-22T18:39:31.719Z,101.93
2019-02-22T18:42:01.499Z,138.77
2019-02-22T18:44:31.266Z,115.53
2019-02-22T18:47:01.057Z,110.03
2019-02-22T18:49:30.808Z,102.47
2019-02-22T18:52:00.719Z,170.07
2019-02-22T18:54:30.487Z,176.93
2019-02-22T18:57:00.285Z,242.13
2019-02-22T18:59:30.022Z,186.30
2019-02-22T19:01:59.803Z,158.60
2019-02-22T19:04:29.580Z,242.77
2019-02-22T19:06:59.344Z,266.83
2019-02-22T19:09:29.102Z,165.33
2019-02-22T19:11:58.852Z,100.80
2019-02-22T19:14:28.641Z,83.93
2019-02-22T19:16:58.371Z,72.90
2019-02-22T19:19:28.082Z,59.70
2019-02-22T19:21:57.817Z,75.83
2019-02-22T19:24:27.547Z,105.00
2019-02-22T19:26:57.333Z,65.60
2019-02-22T19:29:27.079Z,70.43
2019-02-22T19:31:56.861Z,89.50
2019-02-22T19:34:26.616Z,130.47
2019-02-22T19:36:56.351Z,74.13
2019-02-22T19:39:26.139Z,98.53
2019-02-22T19:41:55.853Z,95.10
2019-02-22T19:44:25.638Z,80.30
2019-02-22T19:46:55.777Z,84.00
2019-02-22T19:49:25.781Z,69.33
2019-02-22T19:51:55.514Z,92.50
2019-02-22T19:54:25.278Z,124.27
2019-02-22T19:56:55.063Z,130.13
2019-02-22T19:59:24.872Z,154.03
2019-02-22T20:01:54.653Z,373.13
2019-02-22T20:04:24.467Z,333.30
2019-02-22T20:06:54.232Z,300.67
2019-02-22T20:09:23.971Z,326.33
2019-02-22T20:11:53.889Z,281.53
2019-02-22T20:14:23.644Z,247.77
2019-02-22T20:16:54.203Z,191.27
2019-02-22T20:19:24.142Z,129.23
2019-02-22T20:22:04.154Z,116.60
2019-02-22T20:24:28.991Z,152.07
2019-02-22T20:26:58.790Z,130.03
2019-02-22T20:29:28.587Z,128.03
2019-02-22T20:31:58.533Z,148.00
2019-02-22T20:34:29.895Z,157.17
2019-02-22T20:36:59.736Z,162.70
2019-02-22T20:39:29.562Z,159.87
2019-02-22T20:41:59.333Z,198.00
2019-02-22T20:44:29.107Z,219.23
2019-02-22T20:46:58.844Z,158.77
2019-02-22T20:49:28.646Z,141.10
2019-02-22T20:51:58.391Z,145.13
2019-02-22T20:54:55.531Z,142.83
2019-02-22T20:57:35.576Z,171.23
2019-02-22T21:00:14.599Z,307.00
2019-02-22T21:02:44.602Z,200.80
2019-02-22T21:06:21.349Z,403.93
2019-02-22T21:08:33.855Z,520.33
2019-02-22T21:11:05.356Z,696.93
2019-02-22T21:13:43.008Z,426.33
2019-02-22T21:16:18.854Z,158.13
2019-02-22T21:18:53.092Z,133.80
2019-02-22T21:21:29.558Z,124.30
2019-02-22T21:23:59.591Z,113.13
2019-02-22T21:26:31.985Z,122.00
2019-02-22T21:29:05.293Z,116.57
2019-02-22T21:31:49.942Z,119.47
2019-02-22T21:34:21.127Z,128.13
2019-02-22T21:36:54.631Z,189.53
2019-02-22T21:39:25.497Z,221.87
2019-02-22T21:44:40.682Z,195.20
2019-02-22T21:47:11.985Z,181.03
2019-02-22T21:52:54.976Z,215.37
2019-02-22T21:55:26.020Z,237.13
2019-02-22T21:58:02.757Z,159.70
2019-02-22T22:00:38.289Z,162.47
2019-02-22T22:03:10.662Z,140.23
2019-02-22T22:05:41.075Z,136.63
2019-02-22T22:08:11.792Z,122.77
2019-02-22T22:10:41.932Z,100.20
2019-02-22T22:13:11.999Z,129.23
2019-02-22T22:15:45.304Z,100.40
2019-02-22T22:18:17.316Z,105.20
2019-02-22T22:20:47.345Z,60.80
2019-02-22T22:23:20.140Z,60.73
2019-02-22T22:25:50.164Z,59.83
2019-02-22T22:28:19.979Z,52.87
2019-02-22T22:30:55.679Z,67.67
2019-02-22T22:33:25.529Z,52.40
2019-02-22T22:35:55.617Z,50.43
2019-02-22T22:38:25.591Z,58.83
2019-02-22T22:40:56.096Z,54.27
2019-02-22T22:43:32.773Z,56.97
2019-02-22T22:46:16.379Z,68.83
2019-02-22T22:48:50.057Z,65.30
2019-02-22T22:51:18.633Z,95.47
2019-02-22T22:54:32.604Z,97.70
2019-02-22T22:57:22.621Z,84.17
2019-02-22T22:59:59.049Z,80.60
2019-02-22T23:17:01.573Z,131.30
2019-02-22T23:19:34.311Z,71.20
2019-02-22T23:22:04.070Z,56.23
2019-02-22T23:24:33.823Z,69.77
2019-02-22T23:27:03.556Z,77.67
2019-02-22T23:29:33.317Z,87.37
2019-02-22T23:32:03.037Z,85.17
2019-02-22T23:34:32.806Z,124.03
2019-02-22T23:37:02.538Z,139.73
2019-02-22T23:39:32.321Z,131.87
2019-02-22T23:42:02.051Z,118.73
2019-02-22T23:44:31.818Z,80.73
2019-02-22T23:47:01.546Z,92.47
2019-02-22T23:49:31.328Z,97.23
2019-02-22T23:52:01.133Z,124.43
2019-02-22T23:54:30.901Z,136.73
2019-02-22T23:57:00.673Z,119.50
2019-02-22T23:59:30.559Z,106.53
